createdAt,value
2023-02-05T00:01:42.946Z,7.27
2023-02-05T00:04:10.801Z,7.60
2023-02-05T00:06:38.275Z,7.13
2023-02-05T00:09:05.719Z,6.77
2023-02-05T00:11:33.346Z,5.33
2023-02-05T00:14:00.894Z,6.97
2023-02-05T00:16:28.522Z,7.00
2023-02-05T00:18:57.517Z,7.27
2023-02-05T00:21:24.957Z,5.97
2023-02-05T00:23:52.954Z,7.43
2023-02-05T00:26:21.073Z,6.63
2023-02-05T00:28:49.131Z,8.53
2023-02-05T00:31:20.761Z,6.53
2023-02-05T00:33:49.758Z,5.30
2023-02-05T00:36:19.370Z,7.17
2023-02-05T00:38:47.313Z,5.10
2023-02-05T00:41:15.816Z,6.87
2023-02-05T00:43:44.026Z,7.23
2023-02-05T00:46:13.797Z,6.07
2023-02-05T00:48:43.677Z,7.37
2023-02-05T00:51:11.888Z,6.13
2023-02-05T00:53:39.707Z,6.57
2023-02-05T00:56:07.405Z,6.30
2023-02-05T00:58:35.150Z,7.40
2023-02-05T01:01:02.708Z,7.17
2023-02-05T01:03:30.268Z,6.30
2023-02-05T01:05:57.763Z,6.57
2023-02-05T01:08:25.288Z,6.47
2023-02-05T01:10:52.803Z,7.40
2023-02-05T01:13:20.439Z,6.57
2023-02-05T01:15:47.953Z,8.00
2023-02-05T01:18:15.546Z,8.93
2023-02-05T01:20:43.769Z,5.67
2023-02-05T01:23:12.068Z,6.07
2023-02-05T01:25:40.257Z,6.10
2023-02-05T01:28:07.796Z,6.13
2023-02-05T01:30:36.103Z,5.80
2023-02-05T01:33:04.503Z,6.97
2023-02-05T01:35:32.762Z,7.83
2023-02-05T01:38:00.399Z,9.63
2023-02-05T01:40:27.938Z,6.67
2023-02-05T01:42:55.424Z,7.87
2023-02-05T01:45:22.779Z,7.47
2023-02-05T01:47:57.550Z,9.10
2023-02-05T01:50:43.595Z,9.93
2023-02-05T01:53:20.258Z,7.97
2023-02-05T01:56:03.305Z,7.57
2023-02-05T01:58:40.255Z,7.43
2023-02-05T02:01:08.065Z,6.70
2023-02-05T02:03:36.618Z,5.63
2023-02-05T02:06:05.084Z,7.27
2023-02-05T02:08:33.788Z,7.37
2023-02-05T02:11:05.949Z,5.43
2023-02-05T02:13:36.646Z,6.13
2023-02-05T02:16:06.094Z,6.77
2023-02-05T02:18:35.037Z,6.60
2023-02-05T02:21:56.284Z,8.03
2023-02-05T02:24:56.156Z,5.73
2023-02-05T02:27:49.468Z,7.20
2023-02-05T02:30:30.827Z,7.47
2023-02-05T02:33:32.329Z,6.20
2023-02-05T02:36:10.170Z,5.60
2023-02-05T02:39:02.911Z,6.60
2023-02-05T02:41:48.212Z,6.77
2023-02-05T02:44:35.773Z,7.00
2023-02-05T02:47:22.217Z,6.43
2023-02-05T02:50:05.539Z,6.27
2023-02-05T02:52:38.864Z,5.60
2023-02-05T02:55:11.483Z,6.70
2023-02-05T02:57:42.391Z,7.70
2023-02-05T03:00:16.930Z,6.90
2023-02-05T03:02:46.853Z,6.57
2023-02-05T03:05:19.581Z,6.87
2023-02-05T03:08:18.877Z,6.53
2023-02-05T03:11:06.803Z,5.83
2023-02-05T03:13:35.117Z,6.63
2023-02-05T03:16:03.472Z,5.73
2023-02-05T03:18:31.305Z,5.10
2023-02-05T03:21:09.009Z,6.30
2023-02-05T03:23:36.637Z,8.63
2023-02-05T03:26:04.186Z,7.00
2023-02-05T03:28:32.151Z,5.83
2023-02-05T03:31:14.046Z,6.03
2023-02-05T03:33:56.823Z,6.47
2023-02-05T03:36:34.553Z,6.90
2023-02-05T03:39:19.447Z,5.23
2023-02-05T03:42:24.206Z,6.10
2023-02-05T03:45:39.615Z,6.50
2023-02-05T03:48:57.030Z,6.00
2023-02-05T03:51:37.611Z,5.80
2023-02-05T03:54:31.516Z,6.13
2023-02-05T03:57:16.191Z,5.60
2023-02-05T03:59:44.349Z,4.90
2023-02-05T04:02:12.769Z,6.00
2023-02-05T04:04:40.518Z,5.93
2023-02-05T04:07:08.177Z,7.03
2023-02-05T04:09:35.586Z,5.27
2023-02-05T04:12:02.996Z,5.30
2023-02-05T04:14:30.448Z,5.03
2023-02-05T04:16:58.087Z,5.20
2023-02-05T04:19:25.561Z,5.07
2023-02-05T04:21:52.938Z,4.77
2023-02-05T04:24:20.345Z,5.20
2023-02-05T04:26:47.874Z,5.53
2023-02-05T04:29:15.675Z,5.67
2023-02-05T04:31:43.183Z,6.87
2023-02-05T04:34:10.678Z,5.93
2023-02-05T04:36:38.252Z,6.27
2023-02-05T04:39:05.807Z,5.00
2023-02-05T04:41:33.276Z,6.17
2023-02-05T04:44:00.710Z,4.73
2023-02-05T04:46:28.147Z,4.50
2023-02-05T04:48:55.587Z,4.20
2023-02-05T04:51:23.044Z,5.43
2023-02-05T04:53:50.539Z,5.17
2023-02-05T04:56:18.978Z,4.87
2023-02-05T04:58:46.898Z,4.40
2023-02-05T05:01:17.587Z,4.57
2023-02-05T05:03:45.740Z,4.80
2023-02-05T05:06:14.315Z,6.93
2023-02-05T05:08:42.462Z,3.93
2023-02-05T05:11:13.338Z,5.40
2023-02-05T05:13:41.694Z,4.67
2023-02-05T05:16:11.135Z,4.50
2023-02-05T05:18:41.921Z,4.30
2023-02-05T05:21:09.733Z,4.83
2023-02-05T05:23:38.453Z,5.03
2023-02-05T05:26:08.945Z,3.90
2023-02-05T05:28:36.984Z,4.23
2023-02-05T05:31:20.141Z,5.20
2023-02-05T05:33:48.240Z,5.90
2023-02-05T05:36:16.057Z,4.90
2023-02-05T05:38:43.878Z,5.80
2023-02-05T05:41:40.452Z,7.00
2023-02-05T05:44:08.171Z,4.90
2023-02-05T05:46:36.755Z,5.07
2023-02-05T05:49:04.709Z,5.00
2023-02-05T05:51:33.476Z,6.43
2023-02-05T05:54:00.964Z,5.37
2023-02-05T05:56:28.679Z,5.10
2023-02-05T05:58:56.176Z,6.07
2023-02-05T06:01:23.574Z,5.00
2023-02-05T06:03:51.319Z,4.70
2023-02-05T06:06:18.709Z,4.77
2023-02-05T06:08:46.228Z,5.87
2023-02-05T06:11:13.740Z,5.40
2023-02-05T06:13:41.959Z,6.03
2023-02-05T06:16:09.750Z,13.57
2023-02-05T06:18:37.243Z,12.43
2023-02-05T06:21:06.026Z,10.27
2023-02-05T06:23:34.490Z,10.70
2023-02-05T06:26:02.429Z,9.27
2023-02-05T06:28:29.993Z,7.83
2023-02-05T06:30:57.488Z,6.80
2023-02-05T06:33:25.138Z,5.77
2023-02-05T06:35:52.604Z,6.73
2023-02-05T06:38:20.013Z,5.93
2023-02-05T06:40:48.867Z,5.60
2023-02-05T06:43:16.443Z,6.20
2023-02-05T06:45:43.845Z,5.83
2023-02-05T06:48:11.352Z,6.20
2023-02-05T06:50:38.751Z,5.43
2023-02-05T06:53:06.183Z,6.20
2023-02-05T06:55:34.007Z,7.43
2023-02-05T06:58:01.558Z,6.10
2023-02-05T07:00:29.597Z,6.87
2023-02-05T07:02:57.463Z,6.67
2023-02-05T07:05:24.880Z,6.97
2023-02-05T07:07:52.325Z,7.07
2023-02-05T07:10:20.267Z,7.10
2023-02-05T07:12:47.777Z,5.47
2023-02-05T07:15:15.266Z,7.93
2023-02-05T07:17:42.646Z,7.63
2023-02-05T07:20:10.794Z,6.83
2023-02-05T07:22:38.266Z,7.30
2023-02-05T07:25:06.110Z,7.13
2023-02-05T07:27:33.546Z,7.00
2023-02-05T07:30:01.143Z,6.07
2023-02-05T07:32:28.555Z,8.57
2023-02-05T07:34:55.943Z,6.67
2023-02-05T07:37:23.385Z,12.33
2023-02-05T07:39:51.020Z,10.40
2023-02-05T07:42:18.512Z,12.40
2023-02-05T07:44:45.942Z,11.40
2023-02-05T07:47:13.335Z,9.10
2023-02-05T07:49:40.795Z,7.80
2023-02-05T07:52:08.348Z,8.27
2023-02-05T07:54:35.782Z,10.00
2023-02-05T07:57:04.428Z,7.80
2023-02-05T07:59:33.411Z,9.53
2023-02-05T08:02:00.930Z,8.57
2023-02-05T08:04:28.444Z,15.77
2023-02-05T08:06:55.889Z,13.57
2023-02-05T08:09:23.373Z,17.40
2023-02-05T08:11:50.751Z,48.73
2023-02-05T08:14:18.195Z,24.83
2023-02-05T08:16:45.669Z,10.30
2023-02-05T08:19:18.097Z,6.80
2023-02-05T08:21:45.622Z,7.00
2023-02-05T08:24:13.417Z,8.23
2023-02-05T08:26:40.925Z,6.23
2023-02-05T08:29:09.622Z,7.47
2023-02-05T08:31:38.198Z,7.57
2023-02-05T08:34:05.972Z,8.00
2023-02-05T08:36:33.439Z,6.27
2023-02-05T08:39:00.906Z,7.63
2023-02-05T08:41:28.695Z,5.57
2023-02-05T08:43:56.616Z,7.47
2023-02-05T08:46:31.599Z,7.23
2023-02-05T08:49:04.872Z,8.53
2023-02-05T08:51:33.561Z,8.03
2023-02-05T08:54:00.962Z,7.33
2023-02-05T08:56:28.429Z,6.73
2023-02-05T08:58:56.294Z,6.90
2023-02-05T09:01:23.831Z,9.80
2023-02-05T09:03:51.255Z,7.97
2023-02-05T09:06:18.775Z,7.20
2023-02-05T09:08:47.123Z,6.80
2023-02-05T09:11:14.740Z,6.37
2023-02-05T09:13:42.207Z,8.03
2023-02-05T09:16:11.657Z,7.90
2023-02-05T09:18:39.294Z,9.67
2023-02-05T09:21:08.898Z,8.03
2023-02-05T09:23:36.875Z,11.07
2023-02-05T09:26:05.392Z,6.47
2023-02-05T09:28:33.344Z,7.47
2023-02-05T09:31:10.814Z,8.83
2023-02-05T09:33:38.323Z,8.03
2023-02-05T09:36:13.509Z,9.17
2023-02-05T09:38:41.835Z,7.30
2023-02-05T09:41:14.998Z,9.60
2023-02-05T09:44:21.878Z,6.60
2023-02-05T09:47:07.680Z,7.47
2023-02-05T09:49:47.406Z,8.20
2023-02-05T09:52:32.939Z,7.40
2023-02-05T09:55:15.347Z,6.93
2023-02-05T09:57:43.031Z,6.20
2023-02-05T10:00:34.317Z,8.23
2023-02-05T10:03:29.077Z,8.63
2023-02-05T10:06:46.884Z,9.43
2023-02-05T10:10:03.026Z,7.27
2023-02-05T10:12:41.850Z,5.73
2023-02-05T10:15:46.252Z,6.33
2023-02-05T10:19:21.804Z,7.03
2023-02-05T10:22:11.969Z,9.40
2023-02-05T10:24:47.729Z,8.60
2023-02-05T10:28:04.726Z,7.77
2023-02-05T10:30:52.417Z,3.27
2023-02-05T10:33:56.288Z,2.87
2023-02-05T10:36:26.874Z,4.43
2023-02-05T10:38:57.478Z,5.30
2023-02-05T10:41:30.519Z,3.93
2023-02-05T10:44:12.218Z,2.43
2023-02-05T10:46:41.256Z,2.93
2023-02-05T10:49:44.250Z,3.53
2023-02-05T10:52:14.865Z,4.10
2023-02-05T10:54:43.575Z,3.80
2023-02-05T10:57:18.410Z,2.97
2023-02-05T10:59:59.204Z,3.50
2023-02-05T11:02:43.298Z,4.10
2023-02-05T11:05:27.130Z,2.37
2023-02-05T11:07:55.461Z,3.80
2023-02-05T11:10:27.823Z,3.10
2023-02-05T11:13:17.090Z,5.13
2023-02-05T11:16:04.114Z,2.83
2023-02-05T11:18:40.230Z,3.13
2023-02-05T11:21:09.912Z,6.77
2023-02-05T11:23:40.203Z,5.87
2023-02-05T11:26:23.120Z,2.97
2023-02-05T11:28:50.801Z,5.17
2023-02-05T11:31:28.185Z,3.43
2023-02-05T11:34:07.878Z,3.57
2023-02-05T11:36:56.979Z,3.63
2023-02-05T11:39:38.811Z,4.93
2023-02-05T11:42:32.666Z,4.40
2023-02-05T11:45:03.257Z,4.33
2023-02-05T11:47:37.524Z,4.20
2023-02-05T11:50:06.934Z,3.00
2023-02-05T11:52:37.732Z,2.73
2023-02-05T11:55:06.793Z,7.40
2023-02-05T11:57:42.021Z,3.07
2023-02-05T12:00:09.522Z,2.80
2023-02-05T12:02:41.072Z,23.70
2023-02-05T12:05:19.441Z,6.97
2023-02-05T12:08:31.351Z,6.87
2023-02-05T12:11:26.404Z,43.93
2023-02-05T12:14:10.621Z,9.67
2023-02-05T12:16:57.856Z,49.53
2023-02-05T12:19:55.526Z,29.93
2023-02-05T12:22:51.776Z,13.17
2023-02-05T12:25:30.034Z,24.83
2023-02-05T12:28:21.509Z,26.10
2023-02-05T12:31:22.418Z,13.07
2023-02-05T12:34:13.350Z,8.70
2023-02-05T12:37:09.321Z,5.70
2023-02-05T12:40:20.830Z,12.77
2023-02-05T12:43:20.674Z,18.83
2023-02-05T12:46:40.120Z,4.87
2023-02-05T12:49:29.149Z,10.23
2023-02-05T12:52:27.150Z,4.97
2023-02-05T12:55:41.820Z,8.87
2023-02-05T12:58:12.208Z,16.50
2023-02-05T13:00:52.303Z,4.00
2023-02-05T13:03:38.947Z,14.23
2023-02-05T13:06:29.998Z,3.93
2023-02-05T13:09:07.124Z,3.00
2023-02-05T13:11:44.880Z,3.57
2023-02-05T13:14:14.470Z,3.10
2023-02-05T13:16:47.532Z,7.13
2023-02-05T13:19:45.064Z,11.73
2023-02-05T13:23:03.148Z,9.10
2023-02-05T13:26:08.441Z,3.80
2023-02-05T13:28:47.736Z,6.70
2023-02-05T13:31:39.123Z,5.43
2023-02-05T13:34:09.989Z,9.57
2023-02-05T13:37:13.073Z,11.93
2023-02-05T13:39:58.290Z,10.37
2023-02-05T13:42:48.566Z,7.60
2023-02-05T13:46:00.032Z,6.27
2023-02-05T13:48:58.954Z,4.53
2023-02-05T13:51:39.609Z,3.73
2023-02-05T13:54:24.531Z,3.93
2023-02-05T13:57:26.459Z,18.53
2023-02-05T13:59:55.136Z,18.23
2023-02-05T14:02:33.852Z,12.93
2023-02-05T14:05:03.243Z,17.03
2023-02-05T14:07:46.080Z,9.33
2023-02-05T14:10:37.843Z,22.67
2023-02-05T14:13:32.657Z,33.20
2023-02-05T14:16:25.980Z,30.30
2023-02-05T14:19:02.228Z,9.40
2023-02-05T14:21:32.589Z,4.67
2023-02-05T14:24:29.235Z,6.27
2023-02-05T14:27:00.734Z,6.17
2023-02-05T14:29:49.822Z,5.73
2023-02-05T14:32:29.016Z,6.80
2023-02-05T14:35:32.756Z,7.70
2023-02-05T14:38:23.601Z,9.73
2023-02-05T14:41:25.757Z,6.37
2023-02-05T14:44:19.950Z,20.43
2023-02-05T14:47:23.248Z,20.80
2023-02-05T14:49:51.486Z,8.83
2023-02-05T14:52:46.407Z,9.70
2023-02-05T14:55:13.757Z,6.37
2023-02-05T14:58:04.688Z,31.37
2023-02-05T15:00:35.086Z,38.43
2023-02-05T15:03:05.235Z,22.83
2023-02-05T15:05:44.399Z,19.43
2023-02-05T15:08:34.973Z,12.43
2023-02-05T15:11:26.311Z,10.63
2023-02-05T15:14:21.607Z,14.10
2023-02-05T15:17:07.575Z,20.27
2023-02-05T15:20:02.779Z,18.70
2023-02-05T15:22:46.507Z,24.73
2023-02-05T15:25:31.005Z,15.73
2023-02-05T15:28:09.931Z,16.87
2023-02-05T15:30:58.512Z,14.10
2023-02-05T15:33:43.708Z,29.67
2023-02-05T15:36:27.325Z,60.83
2023-02-05T15:39:20.000Z,68.83
2023-02-05T15:41:48.949Z,56.33
2023-02-05T15:44:35.014Z,38.30
2023-02-05T15:47:15.430Z,33.37
2023-02-05T15:50:02.905Z,30.97
2023-02-05T15:52:36.330Z,23.97
2023-02-05T15:55:18.889Z,28.90
2023-02-05T15:57:48.946Z,14.20
2023-02-05T16:00:38.216Z,9.13
2023-02-05T16:03:06.892Z,11.20
2023-02-05T16:05:34.786Z,13.87
2023-02-05T16:08:03.223Z,18.83
2023-02-05T16:10:34.626Z,33.40
2023-02-05T16:13:16.424Z,118.30
2023-02-05T16:16:09.983Z,29.43
2023-02-05T16:18:58.922Z,18.13
2023-02-05T16:21:30.693Z,18.90
2023-02-05T16:24:37.439Z,30.27
2023-02-05T16:27:16.486Z,20.90
2023-02-05T16:29:57.658Z,35.90
2023-02-05T16:32:45.060Z,46.23
2023-02-05T16:35:29.386Z,35.73
2023-02-05T16:37:57.714Z,26.10
2023-02-05T16:40:43.196Z,34.70
2023-02-05T16:43:38.653Z,52.50
2023-02-05T16:46:22.069Z,25.43
2023-02-05T16:48:52.611Z,17.17
2023-02-05T16:51:32.679Z,37.13
2023-02-05T16:54:11.907Z,41.60
2023-02-05T16:57:08.644Z,109.47
2023-02-05T16:59:52.861Z,120.80
2023-02-05T17:02:30.730Z,132.50
2023-02-05T17:05:01.605Z,45.20
2023-02-05T17:07:30.445Z,37.33
2023-02-05T17:10:20.807Z,33.37
2023-02-05T17:13:05.550Z,35.43
2023-02-05T17:15:36.512Z,31.10
2023-02-05T17:18:24.871Z,59.03
2023-02-05T17:20:52.371Z,100.80
2023-02-05T17:23:19.981Z,103.07
2023-02-05T17:25:47.359Z,60.80
2023-02-05T17:28:18.763Z,31.23
2023-02-05T17:30:48.295Z,21.83
2023-02-05T17:33:25.475Z,22.47
2023-02-05T17:35:52.977Z,20.97
2023-02-05T17:38:23.769Z,21.27
2023-02-05T17:41:11.349Z,22.13
2023-02-05T17:43:39.348Z,16.80
2023-02-05T17:46:15.056Z,21.60
2023-02-05T17:48:44.832Z,23.80
2023-02-05T17:51:20.682Z,22.27
2023-02-05T17:53:49.600Z,25.73
2023-02-05T17:56:19.487Z,22.43
2023-02-05T17:58:47.644Z,23.50
2023-02-05T18:01:15.492Z,32.80
2023-02-05T18:03:43.095Z,25.70
2023-02-05T18:06:13.746Z,34.23
2023-02-05T18:08:42.313Z,26.83
2023-02-05T18:11:10.570Z,23.60
2023-02-05T18:13:38.301Z,21.90
2023-02-05T18:16:06.038Z,26.93
2023-02-05T18:18:39.015Z,30.30
2023-02-05T18:21:07.411Z,28.67
2023-02-05T18:23:35.239Z,61.50
2023-02-05T18:26:06.162Z,34.47
2023-02-05T18:28:34.455Z,30.40
2023-02-05T18:31:06.362Z,28.90
2023-02-05T18:33:34.376Z,29.27
2023-02-05T18:36:04.228Z,27.10
2023-02-05T18:38:32.371Z,32.57
2023-02-05T18:41:08.586Z,46.90
2023-02-05T18:43:37.147Z,57.87
2023-02-05T18:46:16.506Z,71.13
2023-02-05T18:48:45.933Z,62.93
2023-02-05T18:51:16.071Z,82.70
2023-02-05T18:53:45.758Z,83.47
2023-02-05T18:56:22.812Z,65.30
2023-02-05T18:59:02.535Z,44.90
2023-02-05T19:01:37.299Z,41.60
2023-02-05T19:04:12.481Z,41.13
2023-02-05T19:06:45.545Z,40.53
2023-02-05T19:09:13.044Z,40.63
2023-02-05T19:11:41.605Z,52.83
2023-02-05T19:14:13.668Z,60.03
2023-02-05T19:16:42.225Z,126.20
2023-02-05T19:19:14.816Z,113.40
2023-02-05T19:21:45.011Z,78.30
2023-02-05T19:24:14.292Z,48.37
2023-02-05T19:26:44.287Z,40.80
2023-02-05T19:29:18.818Z,42.50
2023-02-05T19:31:47.005Z,69.77
2023-02-05T19:34:15.717Z,61.57
2023-02-05T19:36:43.911Z,62.83
2023-02-05T19:39:16.884Z,80.57
2023-02-05T19:41:46.359Z,95.97
2023-02-05T19:44:13.794Z,89.57
2023-02-05T19:46:48.887Z,65.70
2023-02-05T19:49:20.288Z,37.63
2023-02-05T19:51:59.604Z,29.63
2023-02-05T19:54:27.308Z,34.33
2023-02-05T19:56:55.034Z,32.00
2023-02-05T19:59:22.737Z,31.37
2023-02-05T20:01:50.396Z,28.93
2023-02-05T20:04:22.491Z,24.77
2023-02-05T20:06:52.638Z,24.60
2023-02-05T20:09:20.303Z,25.53
2023-02-05T20:11:52.690Z,26.77
2023-02-05T20:14:20.514Z,28.77
2023-02-05T20:16:48.216Z,21.87
2023-02-05T20:19:17.707Z,20.90
2023-02-05T20:21:46.844Z,24.57
2023-02-05T20:24:16.424Z,25.63
2023-02-05T20:26:49.409Z,27.77
2023-02-05T20:29:39.846Z,32.67
2023-02-05T20:32:09.815Z,55.27
2023-02-05T20:34:39.602Z,52.90
2023-02-05T20:37:09.660Z,45.20
2023-02-05T20:39:42.051Z,41.87
2023-02-05T20:42:16.363Z,33.77
2023-02-05T20:44:44.228Z,31.77
2023-02-05T20:47:14.577Z,31.87
2023-02-05T20:49:43.167Z,45.90
2023-02-05T20:52:11.271Z,58.17
2023-02-05T20:54:38.909Z,56.83
2023-02-05T20:57:06.531Z,48.27
2023-02-05T20:59:34.610Z,32.50
2023-02-05T21:02:02.900Z,28.37
2023-02-05T21:04:30.983Z,23.67
2023-02-05T21:06:58.607Z,47.63
2023-02-05T21:09:26.041Z,156.53
2023-02-05T21:11:55.681Z,91.23
2023-02-05T21:14:23.666Z,124.33
2023-02-05T21:16:51.202Z,70.07
2023-02-05T21:19:18.683Z,65.63
2023-02-05T21:21:46.153Z,29.63
2023-02-05T21:24:16.266Z,34.77
2023-02-05T21:26:49.075Z,29.93
2023-02-05T21:29:20.319Z,29.07
2023-02-05T21:31:53.128Z,28.37
2023-02-05T21:34:25.162Z,27.23
2023-02-05T21:36:54.190Z,27.13
2023-02-05T21:39:22.534Z,24.53
2023-02-05T21:41:50.979Z,30.53
2023-02-05T21:44:18.742Z,28.20
2023-02-05T21:46:46.449Z,28.43
2023-02-05T21:49:14.130Z,26.17
2023-02-05T21:51:44.313Z,26.53
2023-02-05T21:54:12.166Z,27.43
2023-02-05T21:56:42.720Z,30.87
2023-02-05T21:59:13.042Z,30.93
2023-02-05T22:01:42.177Z,30.73
2023-02-05T22:04:16.313Z,31.97
2023-02-05T22:06:44.633Z,35.07
2023-02-05T22:09:15.289Z,37.33
2023-02-05T22:11:45.060Z,39.90
2023-02-05T22:14:12.695Z,51.43
2023-02-05T22:16:40.386Z,49.80
2023-02-05T22:19:08.541Z,58.33
2023-02-05T22:21:40.412Z,62.83
2023-02-05T22:24:10.986Z,56.87
2023-02-05T22:26:41.629Z,50.70
2023-02-05T22:29:14.171Z,49.90
2023-02-05T22:31:42.056Z,46.97
2023-02-05T22:34:09.610Z,58.40
2023-02-05T22:36:37.900Z,70.23
2023-02-05T22:39:06.669Z,66.73
2023-02-05T22:41:37.898Z,58.93
2023-02-05T22:44:07.001Z,58.97
2023-02-05T22:46:40.130Z,54.23
2023-02-05T22:49:08.269Z,51.67
2023-02-05T22:51:39.165Z,48.37
2023-02-05T22:54:07.959Z,51.27
2023-02-05T22:56:35.534Z,65.30
2023-02-05T22:59:03.675Z,71.30
2023-02-05T23:01:35.007Z,65.93
2023-02-05T23:04:04.745Z,64.17
2023-02-05T23:06:38.560Z,64.07
2023-02-05T23:09:08.719Z,60.10
2023-02-05T23:11:37.470Z,80.67
2023-02-05T23:14:06.679Z,73.03
2023-02-05T23:16:39.617Z,89.87
2023-02-05T23:19:19.064Z,89.83
2023-02-05T23:21:47.415Z,74.30
2023-02-05T23:24:15.753Z,65.47
2023-02-05T23:26:46.686Z,65.13
2023-02-05T23:29:17.188Z,60.77
2023-02-05T23:31:45.408Z,73.97
2023-02-05T23:34:13.885Z,102.30
2023-02-05T23:36:41.327Z,75.10
2023-02-05T23:39:08.935Z,71.20
2023-02-05T23:41:36.913Z,67.30
2023-02-05T23:44:22.649Z,65.03
2023-02-05T23:46:51.346Z,60.83
2023-02-05T23:49:23.873Z,59.93
2023-02-05T23:51:54.104Z,63.90
2023-02-05T23:54:23.881Z,59.13
2023-02-05T23:56:52.617Z,54.13
2023-02-05T23:59:20.091Z,51.23
